N17X KPDX-KPDX
Flight info
| Callsign | N17X |
|---|---|
| Flight time | N/A |
| Altitude | 3500 |
| Route | DCT |
| Aircraft | AS50/L-DGV/C |
Departure
| Time | 2026-05-08 01:48 |
|---|---|
| Airport | Portland International Airport (KPDX) |
Arrival
| Time | N/A |
|---|---|
| Airport | Portland International Airport (KPDX) |
| Time | Latitude | Longitude | Altitude | Speed | Heading |
|---|---|---|---|---|---|
| 2026-05-08 01:43 | 45.58782 | -122.58459 | 14 ft | 0 kts | 209° |
| 2026-05-08 01:45 | 45.58779 | -122.58454 | 18 ft | 1 kts | 213° |
| 2026-05-08 01:45 | 45.58775 | -122.58454 | 18 ft | 1 kts | 120° |
| 2026-05-08 01:45 | 45.58768 | -122.58453 | 18 ft | 0 kts | 109° |
| 2026-05-08 01:46 | 45.58771 | -122.58446 | 18 ft | 1 kts | 115° |
| 2026-05-08 01:46 | 45.58770 | -122.58444 | 17 ft | 0 kts | 117° |
| 2026-05-08 01:48 | 45.58917 | -122.58646 | 113 ft | 52 kts | 311° |
| 2026-05-08 01:48 | 45.59196 | -122.59183 | 313 ft | 78 kts | 300° |
| 2026-05-08 01:48 | 45.59450 | -122.59951 | 543 ft | 91 kts | 291° |
| 2026-05-08 01:48 | 45.59683 | -122.60803 | 823 ft | 93 kts | 292° |
| 2026-05-08 01:49 | 45.59943 | -122.61677 | 1099 ft | 97 kts | 295° |
| 2026-05-08 01:49 | 45.60239 | -122.62602 | 1223 ft | 110 kts | 296° |
| 2026-05-08 01:49 | 45.60560 | -122.63664 | 1209 ft | 123 kts | 294° |
| 2026-05-08 01:49 | 45.60949 | -122.64750 | 1220 ft | 125 kts | 300° |
| 2026-05-08 01:50 | 45.61373 | -122.65822 | 1259 ft | 123 kts | 299° |
| 2026-05-08 01:50 | 45.61776 | -122.66906 | 1254 ft | 124 kts | 301° |
| 2026-05-08 01:50 | 45.62193 | -122.67999 | 1244 ft | 125 kts | 298° |
| 2026-05-08 01:50 | 45.62571 | -122.69119 | 1237 ft | 123 kts | 296° |
| 2026-05-08 01:51 | 45.62972 | -122.70157 | 1353 ft | 115 kts | 301° |
| 2026-05-08 01:51 | 45.63376 | -122.71151 | 1446 ft | 115 kts | 304° |
| 2026-05-08 01:51 | 45.63786 | -122.72134 | 1518 ft | 117 kts | 302° |
| 2026-05-08 01:51 | 45.64258 | -122.73108 | 1527 ft | 122 kts | 316° |
| 2026-05-08 01:52 | 45.64956 | -122.73853 | 1511 ft | 129 kts | 328° |
| 2026-05-08 01:52 | 45.65760 | -122.74470 | 1503 ft | 131 kts | 331° |
| 2026-05-08 01:52 | 45.66598 | -122.75001 | 1498 ft | 133 kts | 339° |
| 2026-05-08 01:52 | 45.67471 | -122.75472 | 1493 ft | 135 kts | 345° |
| 2026-05-08 01:53 | 45.68391 | -122.75736 | 1485 ft | 135 kts | 351° |
| 2026-05-08 01:53 | 45.69307 | -122.75943 | 1480 ft | 132 kts | 350° |
| 2026-05-08 01:53 | 45.70218 | -122.76098 | 1492 ft | 132 kts | 355° |
| 2026-05-08 01:53 | 45.71136 | -122.76133 | 1496 ft | 131 kts | 356° |
| 2026-05-08 01:54 | 45.72046 | -122.76245 | 1506 ft | 131 kts | 351° |
| 2026-05-08 01:54 | 45.72942 | -122.76485 | 1497 ft | 130 kts | 348° |
| 2026-05-08 01:54 | 45.73806 | -122.76818 | 1497 ft | 127 kts | 343° |
| 2026-05-08 01:54 | 45.74630 | -122.77265 | 1493 ft | 126 kts | 339° |
| 2026-05-08 01:55 | 45.75416 | -122.77826 | 1496 ft | 128 kts | 333° |
| 2026-05-08 01:55 | 45.76272 | -122.78204 | 1471 ft | 129 kts | 350° |
| 2026-05-08 01:55 | 45.77148 | -122.78396 | 1488 ft | 127 kts | 351° |
| 2026-05-08 01:55 | 45.78008 | -122.78579 | 1557 ft | 123 kts | 350° |
| 2026-05-08 01:56 | 45.78855 | -122.78766 | 1577 ft | 125 kts | 351° |
| 2026-05-08 01:56 | 45.79726 | -122.78901 | 1585 ft | 125 kts | 352° |
| 2026-05-08 01:56 | 45.80592 | -122.78997 | 1582 ft | 122 kts | 354° |
| 2026-05-08 01:56 | 45.81447 | -122.78976 | 1518 ft | 125 kts | 360° |
| 2026-05-08 01:57 | 45.82307 | -122.78985 | 1472 ft | 123 kts | 355° |
| 2026-05-08 01:57 | 45.83147 | -122.79065 | 1484 ft | 118 kts | 354° |
| 2026-05-08 01:57 | 45.83964 | -122.79182 | 1480 ft | 118 kts | 352° |
| 2026-05-08 01:57 | 45.84774 | -122.79236 | 1506 ft | 115 kts | 1° |
| 2026-05-08 01:58 | 45.85554 | -122.79107 | 1545 ft | 112 kts | 7° |
| 2026-05-08 01:58 | 45.86329 | -122.78981 | 1501 ft | 112 kts | 356° |
| 2026-05-08 01:58 | 45.87063 | -122.79196 | 1510 ft | 108 kts | 341° |
| 2026-05-08 01:58 | 45.87766 | -122.79494 | 1516 ft | 104 kts | 346° |
| 2026-05-08 01:59 | 45.88460 | -122.79736 | 1494 ft | 101 kts | 346° |
| 2026-05-08 01:59 | 45.89124 | -122.79997 | 1511 ft | 97 kts | 344° |
| 2026-05-08 01:59 | 45.89772 | -122.80225 | 1520 ft | 95 kts | 348° |
| 2026-05-08 01:59 | 45.90416 | -122.80399 | 1531 ft | 94 kts | 349° |
| 2026-05-08 02:00 | 45.91070 | -122.80534 | 1509 ft | 96 kts | 356° |
| 2026-05-08 02:00 | 45.91745 | -122.80517 | 1492 ft | 97 kts | 358° |
| 2026-05-08 02:00 | 45.92416 | -122.80585 | 1464 ft | 97 kts | 352° |
| 2026-05-08 02:00 | 45.93079 | -122.80766 | 1450 ft | 97 kts | 344° |
| 2026-05-08 02:01 | 45.93719 | -122.81081 | 1474 ft | 97 kts | 338° |
| 2026-05-08 02:01 | 45.94328 | -122.81495 | 1470 ft | 97 kts | 330° |
| 2026-05-08 02:01 | 45.94898 | -122.82012 | 1514 ft | 97 kts | 324° |
| 2026-05-08 02:01 | 45.95437 | -122.82601 | 1554 ft | 99 kts | 327° |
| 2026-05-08 02:02 | 45.96082 | -122.83002 | 1493 ft | 102 kts | 339° |
| 2026-05-08 02:02 | 45.96722 | -122.83377 | 1480 ft | 96 kts | 335° |
| 2026-05-08 02:02 | 45.97362 | -122.83762 | 1296 ft | 104 kts | 336° |
| 2026-05-08 02:02 | 45.98031 | -122.84206 | 1055 ft | 108 kts | 335° |
| 2026-05-08 02:03 | 45.98718 | -122.84689 | 860 ft | 109 kts | 341° |
| 2026-05-08 02:03 | 45.99437 | -122.84920 | 676 ft | 104 kts | 352° |
| 2026-05-08 02:03 | 46.00103 | -122.85110 | 669 ft | 93 kts | 351° |
| 2026-05-08 02:03 | 46.00713 | -122.85280 | 668 ft | 88 kts | 351° |
| 2026-05-08 02:04 | 46.01310 | -122.85557 | 627 ft | 87 kts | 342° |
| 2026-05-08 02:04 | 46.01833 | -122.85847 | 602 ft | 75 kts | 340° |
| 2026-05-08 02:04 | 46.02275 | -122.86118 | 578 ft | 62 kts | 322° |
| 2026-05-08 02:04 | 46.02065 | -122.86613 | 508 ft | 82 kts | 194° |
| 2026-05-08 02:05 | 46.01548 | -122.86368 | 495 ft | 75 kts | 146° |
| 2026-05-08 02:05 | 46.01257 | -122.85827 | 442 ft | 57 kts | 120° |
| 2026-05-08 02:05 | 46.01101 | -122.85426 | 311 ft | 41 kts | 125° |
| 2026-05-08 02:05 | 46.00972 | -122.85093 | 136 ft | 31 kts | 121° |
| 2026-05-08 02:06 | 46.00924 | -122.84963 | 49 ft | 3 kts | 130° |
| 2026-05-08 02:06 | 46.00919 | -122.84955 | 54 ft | 1 kts | 164° |
| 2026-05-08 02:06 | 46.00918 | -122.84954 | 47 ft | 0 kts | 148° |
| 2026-05-08 02:07 | 46.00916 | -122.84954 | 61 ft | 2 kts | 136° |
| 2026-05-08 02:07 | 46.00939 | -122.84945 | 180 ft | 8 kts | 135° |
| 2026-05-08 02:07 | 46.00717 | -122.84724 | 301 ft | 56 kts | 157° |
| 2026-05-08 02:08 | 46.00298 | -122.84687 | 449 ft | 71 kts | 212° |
| 2026-05-08 02:08 | 46.00255 | -122.85328 | 429 ft | 77 kts | 312° |
| 2026-05-08 02:08 | 46.00665 | -122.85778 | 555 ft | 75 kts | 339° |
| 2026-05-08 02:08 | 46.01138 | -122.86171 | 625 ft | 82 kts | 336° |
| 2026-05-08 02:09 | 46.01683 | -122.86542 | 687 ft | 90 kts | 332° |
| 2026-05-08 02:09 | 46.02241 | -122.86994 | 715 ft | 94 kts | 335° |
| 2026-05-08 02:09 | 46.02868 | -122.87263 | 749 ft | 94 kts | 347° |
| 2026-05-08 02:09 | 46.03517 | -122.87469 | 789 ft | 96 kts | 349° |
| 2026-05-08 02:10 | 46.04182 | -122.87660 | 756 ft | 97 kts | 348° |
| 2026-05-08 02:10 | 46.04858 | -122.87569 | 718 ft | 103 kts | 16° |
| 2026-05-08 02:10 | 46.05563 | -122.87278 | 659 ft | 104 kts | 13° |
| 2026-05-08 02:10 | 46.06258 | -122.87069 | 666 ft | 99 kts | 5° |
| 2026-05-08 02:11 | 46.06934 | -122.87045 | 688 ft | 94 kts | 357° |
| 2026-05-08 02:11 | 46.07558 | -122.87190 | 701 ft | 93 kts | 340° |
| 2026-05-08 02:11 | 46.08092 | -122.87715 | 688 ft | 92 kts | 329° |
| 2026-05-08 02:11 | 46.08716 | -122.88050 | 618 ft | 96 kts | 342° |
| 2026-05-08 02:12 | 46.09347 | -122.88373 | 585 ft | 96 kts | 341° |
| 2026-05-08 02:12 | 46.09979 | -122.88722 | 574 ft | 90 kts | 340° |
| 2026-05-08 02:12 | 46.10497 | -122.89035 | 567 ft | 73 kts | 342° |
| 2026-05-08 02:12 | 46.10940 | -122.89248 | 393 ft | 60 kts | 349° |
| 2026-05-08 02:13 | 46.11327 | -122.89322 | 226 ft | 52 kts | 353° |
| 2026-05-08 02:13 | 46.11569 | -122.89416 | 117 ft | 28 kts | 355° |
| 2026-05-08 02:13 | 46.11671 | -122.89437 | 50 ft | 5 kts | 348° |
| 2026-05-08 02:13 | 46.11698 | -122.89434 | 40 ft | 2 kts | 332° |
| 2026-05-08 02:14 | 46.11702 | -122.89437 | 39 ft | 3 kts | 332° |
| 2026-05-08 02:14 | 46.11691 | -122.89458 | 45 ft | 6 kts | 92° |
| 2026-05-08 02:14 | 46.11691 | -122.89454 | 45 ft | 1 kts | 62° |
| 2026-05-08 02:14 | 46.11693 | -122.89443 | 41 ft | 1 kts | 66° |
| 2026-05-08 02:15 | 46.11693 | -122.89440 | 41 ft | 1 kts | 337° |
| 2026-05-08 02:15 | 46.11709 | -122.89525 | 51 ft | 11 kts | 314° |
| 2026-05-08 02:15 | 46.11736 | -122.89580 | 41 ft | 2 kts | 313° |
| 2026-05-08 02:15 | 46.11739 | -122.89595 | 34 ft | 0 kts | 316° |